sensor_id;sensor_type;location;lat;lon;timestamp;P1;durP1;ratioP1;P2;durP2;ratioP2
11887;SDS011;6003;42.756;23.130;2022-09-09T00:02:18;4.33;;;4.03;;
11887;SDS011;6003;42.756;23.130;2022-09-09T00:04:48;4.00;;;3.70;;
11887;SDS011;6003;42.756;23.130;2022-09-09T00:07:28;4.93;;;4.53;;
11887;SDS011;6003;42.756;23.130;2022-09-09T00:10:06;4.53;;;4.13;;
11887;SDS011;6003;42.756;23.130;2022-09-09T00:12:43;4.37;;;3.97;;
11887;SDS011;6003;42.756;23.130;2022-09-09T00:15:21;4.60;;;4.00;;
11887;SDS011;6003;42.756;23.130;2022-09-09T00:17:52;5.23;;;4.77;;
11887;SDS011;6003;42.756;23.130;2022-09-09T00:20:28;4.47;;;4.17;;
11887;SDS011;6003;42.756;23.130;2022-09-09T00:23:00;4.60;;;4.27;;
11887;SDS011;6003;42.756;23.130;2022-09-09T00:25:32;5.20;;;4.70;;
11887;SDS011;6003;42.756;23.130;2022-09-09T00:28:09;5.07;;;4.67;;
11887;SDS011;6003;42.756;23.130;2022-09-09T00:30:44;4.60;;;4.30;;
11887;SDS011;6003;42.756;23.130;2022-09-09T00:33:23;6.03;;;5.03;;
11887;SDS011;6003;42.756;23.130;2022-09-09T00:35:54;4.93;;;4.53;;
11887;SDS011;6003;42.756;23.130;2022-09-09T00:38:25;4.73;;;4.33;;
11887;SDS011;6003;42.756;23.130;2022-09-09T00:41:01;4.90;;;4.50;;
11887;SDS011;6003;42.756;23.130;2022-09-09T00:43:36;4.73;;;4.33;;
11887;SDS011;6003;42.756;23.130;2022-09-09T00:46:18;4.73;;;4.37;;
11887;SDS011;6003;42.756;23.130;2022-09-09T00:48:59;4.60;;;4.20;;
11887;SDS011;6003;42.756;23.130;2022-09-09T00:51:37;5.13;;;4.63;;
11887;SDS011;6003;42.756;23.130;2022-09-09T00:54:16;4.50;;;4.20;;
11887;SDS011;6003;42.756;23.130;2022-09-09T00:56:54;4.73;;;4.37;;
11887;SDS011;6003;42.756;23.130;2022-09-09T00:59:31;5.23;;;4.83;;
11887;SDS011;6003;42.756;23.130;2022-09-09T01:02:07;6.70;;;4.97;;
11887;SDS011;6003;42.756;23.130;2022-09-09T01:04:41;5.40;;;4.63;;
11887;SDS011;6003;42.756;23.130;2022-09-09T01:07:12;4.93;;;4.43;;
11887;SDS011;6003;42.756;23.130;2022-09-09T01:09:45;4.83;;;4.43;;
11887;SDS011;6003;42.756;23.130;2022-09-09T01:12:23;5.73;;;5.33;;
11887;SDS011;6003;42.756;23.130;2022-09-09T01:14:54;5.07;;;4.57;;
11887;SDS011;6003;42.756;23.130;2022-09-09T01:17:30;5.20;;;4.77;;
11887;SDS011;6003;42.756;23.130;2022-09-09T01:20:02;5.30;;;4.83;;
11887;SDS011;6003;42.756;23.130;2022-09-09T01:22:34;5.20;;;4.80;;
11887;SDS011;6003;42.756;23.130;2022-09-09T01:25:11;5.10;;;4.70;;
11887;SDS011;6003;42.756;23.130;2022-09-09T01:27:50;5.67;;;5.17;;
11887;SDS011;6003;42.756;23.130;2022-09-09T01:30:20;6.53;;;5.93;;
11887;SDS011;6003;42.756;23.130;2022-09-09T01:32:49;6.00;;;5.37;;
11887;SDS011;6003;42.756;23.130;2022-09-09T01:35:23;6.03;;;5.53;;
11887;SDS011;6003;42.756;23.130;2022-09-09T01:37:58;6.00;;;5.50;;
11887;SDS011;6003;42.756;23.130;2022-09-09T01:40:25;5.60;;;5.10;;
11887;SDS011;6003;42.756;23.130;2022-09-09T01:42:54;5.33;;;4.83;;
11887;SDS011;6003;42.756;23.130;2022-09-09T01:45:21;5.87;;;5.33;;
11887;SDS011;6003;42.756;23.130;2022-09-09T01:47:50;5.67;;;5.17;;
11887;SDS011;6003;42.756;23.130;2022-09-09T01:50:18;5.73;;;5.23;;
11887;SDS011;6003;42.756;23.130;2022-09-09T01:52:48;5.07;;;4.67;;
11887;SDS011;6003;42.756;23.130;2022-09-09T01:55:17;5.77;;;5.27;;
11887;SDS011;6003;42.756;23.130;2022-09-09T01:57:50;5.33;;;4.83;;
11887;SDS011;6003;42.756;23.130;2022-09-09T02:00:27;6.40;;;5.67;;
11887;SDS011;6003;42.756;23.130;2022-09-09T02:02:58;5.97;;;5.43;;
11887;SDS011;6003;42.756;23.130;2022-09-09T02:05:31;5.90;;;5.30;;
11887;SDS011;6003;42.756;23.130;2022-09-09T02:08:05;6.30;;;5.77;;
11887;SDS011;6003;42.756;23.130;2022-09-09T02:10:35;5.97;;;5.47;;
11887;SDS011;6003;42.756;23.130;2022-09-09T02:13:09;5.50;;;5.03;;
11887;SDS011;6003;42.756;23.130;2022-09-09T02:15:40;6.00;;;5.40;;
11887;SDS011;6003;42.756;23.130;2022-09-09T02:18:12;5.57;;;5.07;;
11887;SDS011;6003;42.756;23.130;2022-09-09T02:20:41;6.30;;;5.70;;
11887;SDS011;6003;42.756;23.130;2022-09-09T02:23:11;7.17;;;5.80;;
11887;SDS011;6003;42.756;23.130;2022-09-09T02:25:40;5.57;;;5.13;;
11887;SDS011;6003;42.756;23.130;2022-09-09T02:28:10;6.07;;;5.47;;
11887;SDS011;6003;42.756;23.130;2022-09-09T02:30:40;6.03;;;5.53;;
11887;SDS011;6003;42.756;23.130;2022-09-09T02:36:31;7.90;;;7.27;;
11887;SDS011;6003;42.756;23.130;2022-09-09T02:39:00;7.90;;;7.20;;
11887;SDS011;6003;42.756;23.130;2022-09-09T02:41:30;8.27;;;7.53;;
11887;SDS011;6003;42.756;23.130;2022-09-09T02:44:01;8.17;;;7.37;;
11887;SDS011;6003;42.756;23.130;2022-09-09T02:46:35;8.53;;;7.73;;
11887;SDS011;6003;42.756;23.130;2022-09-09T02:49:09;8.37;;;7.60;;
11887;SDS011;6003;42.756;23.130;2022-09-09T02:51:44;8.47;;;7.67;;
11887;SDS011;6003;42.756;23.130;2022-09-09T02:54:20;7.20;;;6.60;;
11887;SDS011;6003;42.756;23.130;2022-09-09T02:56:53;8.53;;;7.70;;
11887;SDS011;6003;42.756;23.130;2022-09-09T02:59:22;8.23;;;7.53;;
11887;SDS011;6003;42.756;23.130;2022-09-09T03:01:52;7.77;;;7.07;;
11887;SDS011;6003;42.756;23.130;2022-09-09T03:04:19;7.20;;;6.60;;
11887;SDS011;6003;42.756;23.130;2022-09-09T03:06:46;7.87;;;7.07;;
11887;SDS011;6003;42.756;23.130;2022-09-09T03:09:13;7.20;;;6.50;;
11887;SDS011;6003;42.756;23.130;2022-09-09T03:11:40;11.30;;;7.07;;
11887;SDS011;6003;42.756;23.130;2022-09-09T03:14:07;7.93;;;7.13;;
11887;SDS011;6003;42.756;23.130;2022-09-09T03:16:36;8.47;;;7.63;;
11887;SDS011;6003;42.756;23.130;2022-09-09T03:19:03;8.10;;;7.40;;
11887;SDS011;6003;42.756;23.130;2022-09-09T03:21:31;7.57;;;6.87;;
11887;SDS011;6003;42.756;23.130;2022-09-09T03:23:58;7.17;;;6.57;;
11887;SDS011;6003;42.756;23.130;2022-09-09T03:26:25;7.77;;;7.07;;
11887;SDS011;6003;42.756;23.130;2022-09-09T03:28:52;7.90;;;6.50;;
11887;SDS011;6003;42.756;23.130;2022-09-09T03:31:19;7.00;;;6.30;;
11887;SDS011;6003;42.756;23.130;2022-09-09T03:36:45;6.00;;;4.50;;
11887;SDS011;6003;42.756;23.130;2022-09-09T03:39:13;5.47;;;4.73;;
11887;SDS011;6003;42.756;23.130;2022-09-09T03:41:40;5.57;;;5.10;;
11887;SDS011;6003;42.756;23.130;2022-09-09T03:44:07;5.23;;;4.73;;
11887;SDS011;6003;42.756;23.130;2022-09-09T03:46:34;6.00;;;5.40;;
11887;SDS011;6003;42.756;23.130;2022-09-09T03:49:01;6.00;;;5.50;;
11887;SDS011;6003;42.756;23.130;2022-09-09T03:51:28;8.13;;;6.43;;
11887;SDS011;6003;42.756;23.130;2022-09-09T03:53:57;6.40;;;5.80;;
11887;SDS011;6003;42.756;23.130;2022-09-09T03:56:25;6.27;;;5.60;;
11887;SDS011;6003;42.756;23.130;2022-09-09T03:58:52;6.33;;;5.40;;
11887;SDS011;6003;42.756;23.130;2022-09-09T04:01:19;6.67;;;5.70;;
11887;SDS011;6003;42.756;23.130;2022-09-09T04:03:46;5.80;;;5.30;;
11887;SDS011;6003;42.756;23.130;2022-09-09T04:06:13;6.17;;;5.50;;
11887;SDS011;6003;42.756;23.130;2022-09-09T04:08:43;6.87;;;6.20;;
11887;SDS011;6003;42.756;23.130;2022-09-09T04:11:11;7.37;;;6.63;;
11887;SDS011;6003;42.756;23.130;2022-09-09T04:13:39;6.03;;;5.53;;
11887;SDS011;6003;42.756;23.130;2022-09-09T04:16:07;6.30;;;5.67;;
11887;SDS011;6003;42.756;23.130;2022-09-09T04:18:36;5.67;;;5.17;;
11887;SDS011;6003;42.756;23.130;2022-09-09T04:21:03;5.17;;;4.77;;
11887;SDS011;6003;42.756;23.130;2022-09-09T04:23:31;4.97;;;4.47;;
11887;SDS011;6003;42.756;23.130;2022-09-09T04:26:00;5.10;;;4.40;;
11887;SDS011;6003;42.756;23.130;2022-09-09T04:28:30;5.43;;;4.50;;
11887;SDS011;6003;42.756;23.130;2022-09-09T04:31:03;7.13;;;5.10;;
11887;SDS011;6003;42.756;23.130;2022-09-09T04:33:31;4.97;;;4.57;;
11887;SDS011;6003;42.756;23.130;2022-09-09T04:35:58;4.60;;;4.20;;
11887;SDS011;6003;42.756;23.130;2022-09-09T04:38:25;4.23;;;3.93;;
11887;SDS011;6003;42.756;23.130;2022-09-09T04:40:55;4.33;;;3.93;;
11887;SDS011;6003;42.756;23.130;2022-09-09T04:46:22;4.23;;;3.83;;
11887;SDS011;6003;42.756;23.130;2022-09-09T04:48:49;6.73;;;3.30;;
11887;SDS011;6003;42.756;23.130;2022-09-09T04:51:17;4.17;;;3.67;;
11887;SDS011;6003;42.756;23.130;2022-09-09T04:53:44;4.00;;;3.63;;
11887;SDS011;6003;42.756;23.130;2022-09-09T04:56:14;3.70;;;3.37;;
11887;SDS011;6003;42.756;23.130;2022-09-09T04:58:42;4.07;;;3.17;;
11887;SDS011;6003;42.756;23.130;2022-09-09T05:01:12;3.40;;;3.00;;
11887;SDS011;6003;42.756;23.130;2022-09-09T05:03:41;4.83;;;3.30;;
11887;SDS011;6003;42.756;23.130;2022-09-09T05:06:11;3.30;;;3.00;;
11887;SDS011;6003;42.756;23.130;2022-09-09T05:08:40;3.30;;;3.00;;
11887;SDS011;6003;42.756;23.130;2022-09-09T05:11:18;3.23;;;3.03;;
11887;SDS011;6003;42.756;23.130;2022-09-09T05:13:57;3.33;;;3.10;;
11887;SDS011;6003;42.756;23.130;2022-09-09T05:16:25;3.20;;;3.00;;
11887;SDS011;6003;42.756;23.130;2022-09-09T05:18:52;3.23;;;3.03;;
11887;SDS011;6003;42.756;23.130;2022-09-09T05:21:20;3.03;;;2.83;;
11887;SDS011;6003;42.756;23.130;2022-09-09T05:23:50;3.93;;;3.60;;
11887;SDS011;6003;42.756;23.130;2022-09-09T05:26:17;3.37;;;3.17;;
11887;SDS011;6003;42.756;23.130;2022-09-09T05:28:45;3.83;;;3.00;;
11887;SDS011;6003;42.756;23.130;2022-09-09T05:31:13;3.87;;;2.80;;
11887;SDS011;6003;42.756;23.130;2022-09-09T05:33:43;3.27;;;3.07;;
11887;SDS011;6003;42.756;23.130;2022-09-09T05:36:12;3.27;;;3.07;;
11887;SDS011;6003;42.756;23.130;2022-09-09T05:38:40;3.20;;;3.00;;
11887;SDS011;6003;42.756;23.130;2022-09-09T05:41:07;3.00;;;2.80;;
11887;SDS011;6003;42.756;23.130;2022-09-09T05:43:35;2.60;;;2.50;;
11887;SDS011;6003;42.756;23.130;2022-09-09T05:46:03;3.63;;;3.40;;
11887;SDS011;6003;42.756;23.130;2022-09-09T05:48:31;3.07;;;2.87;;
11887;SDS011;6003;42.756;23.130;2022-09-09T05:51:01;3.30;;;3.07;;
11887;SDS011;6003;42.756;23.130;2022-09-09T05:53:28;2.80;;;2.60;;
11887;SDS011;6003;42.756;23.130;2022-09-09T05:56:00;3.30;;;3.07;;
11887;SDS011;6003;42.756;23.130;2022-09-09T05:58:29;4.03;;;3.63;;
11887;SDS011;6003;42.756;23.130;2022-09-09T06:01:01;3.43;;;3.13;;
11887;SDS011;6003;42.756;23.130;2022-09-09T06:03:29;3.27;;;3.07;;
11887;SDS011;6003;42.756;23.130;2022-09-09T06:05:57;3.40;;;3.20;;
11887;SDS011;6003;42.756;23.130;2022-09-09T06:08:26;2.97;;;2.73;;
11887;SDS011;6003;42.756;23.130;2022-09-09T06:11:00;3.47;;;3.27;;
11887;SDS011;6003;42.756;23.130;2022-09-09T06:13:28;3.33;;;3.13;;
11887;SDS011;6003;42.756;23.130;2022-09-09T06:15:56;3.97;;;3.40;;
11887;SDS011;6003;42.756;23.130;2022-09-09T06:18:23;3.47;;;3.17;;
11887;SDS011;6003;42.756;23.130;2022-09-09T06:20:55;3.53;;;3.23;;
11887;SDS011;6003;42.756;23.130;2022-09-09T06:23:23;3.73;;;3.43;;
11887;SDS011;6003;42.756;23.130;2022-09-09T06:25:59;3.37;;;3.17;;
11887;SDS011;6003;42.756;23.130;2022-09-09T06:28:27;3.97;;;3.57;;
11887;SDS011;6003;42.756;23.130;2022-09-09T06:30:57;3.80;;;3.50;;
11887;SDS011;6003;42.756;23.130;2022-09-09T06:33:24;3.90;;;3.60;;
11887;SDS011;6003;42.756;23.130;2022-09-09T06:35:53;3.60;;;3.40;;
11887;SDS011;6003;42.756;23.130;2022-09-09T06:38:22;3.77;;;3.50;;
11887;SDS011;6003;42.756;23.130;2022-09-09T06:40:54;4.03;;;3.67;;
11887;SDS011;6003;42.756;23.130;2022-09-09T06:43:21;3.70;;;3.40;;
11887;SDS011;6003;42.756;23.130;2022-09-09T06:45:55;3.80;;;3.50;;
11887;SDS011;6003;42.756;23.130;2022-09-09T06:48:23;3.47;;;3.17;;
11887;SDS011;6003;42.756;23.130;2022-09-09T06:50:51;3.63;;;3.33;;
11887;SDS011;6003;42.756;23.130;2022-09-09T06:53:19;2.83;;;2.63;;
11887;SDS011;6003;42.756;23.130;2022-09-09T06:55:46;3.80;;;3.50;;
11887;SDS011;6003;42.756;23.130;2022-09-09T06:58:14;3.90;;;3.50;;
11887;SDS011;6003;42.756;23.130;2022-09-09T07:00:41;3.60;;;3.40;;
11887;SDS011;6003;42.756;23.130;2022-09-09T07:03:09;3.33;;;3.13;;
11887;SDS011;6003;42.756;23.130;2022-09-09T07:05:36;2.80;;;2.70;;
11887;SDS011;6003;42.756;23.130;2022-09-09T07:08:03;3.50;;;3.20;;
11887;SDS011;6003;42.756;23.130;2022-09-09T07:10:31;3.43;;;3.13;;
11887;SDS011;6003;42.756;23.130;2022-09-09T07:12:59;3.80;;;3.50;;
11887;SDS011;6003;42.756;23.130;2022-09-09T07:15:28;3.63;;;3.33;;
11887;SDS011;6003;42.756;23.130;2022-09-09T07:17:55;3.40;;;3.20;;
11887;SDS011;6003;42.756;23.130;2022-09-09T07:20:27;3.80;;;3.40;;
11887;SDS011;6003;42.756;23.130;2022-09-09T07:22:54;3.17;;;2.97;;
11887;SDS011;6003;42.756;23.130;2022-09-09T07:25:23;2.87;;;2.70;;
11887;SDS011;6003;42.756;23.130;2022-09-09T07:27:56;3.17;;;2.97;;
11887;SDS011;6003;42.756;23.130;2022-09-09T07:30:23;2.87;;;2.73;;
11887;SDS011;6003;42.756;23.130;2022-09-09T07:32:52;3.63;;;3.33;;
11887;SDS011;6003;42.756;23.130;2022-09-09T07:35:21;3.00;;;2.80;;
11887;SDS011;6003;42.756;23.130;2022-09-09T07:37:48;2.60;;;2.50;;
11887;SDS011;6003;42.756;23.130;2022-09-09T07:40:15;3.03;;;2.83;;
11887;SDS011;6003;42.756;23.130;2022-09-09T07:42:42;3.50;;;3.20;;
11887;SDS011;6003;42.756;23.130;2022-09-09T07:45:09;3.57;;;2.90;;
11887;SDS011;6003;42.756;23.130;2022-09-09T07:47:37;3.33;;;3.13;;
11887;SDS011;6003;42.756;23.130;2022-09-09T07:50:05;3.03;;;2.83;;
11887;SDS011;6003;42.756;23.130;2022-09-09T07:52:34;2.90;;;2.70;;
11887;SDS011;6003;42.756;23.130;2022-09-09T07:55:02;3.10;;;2.80;;
11887;SDS011;6003;42.756;23.130;2022-09-09T07:57:29;3.00;;;2.80;;
11887;SDS011;6003;42.756;23.130;2022-09-09T07:59:57;2.67;;;2.47;;
11887;SDS011;6003;42.756;23.130;2022-09-09T08:02:24;3.10;;;2.90;;
11887;SDS011;6003;42.756;23.130;2022-09-09T08:04:53;3.15;;;2.90;;
11887;SDS011;6003;42.756;23.130;2022-09-09T08:07:21;3.05;;;2.85;;
11887;SDS011;6003;42.756;23.130;2022-09-09T08:09:49;2.47;;;2.38;;
11887;SDS011;6003;42.756;23.130;2022-09-09T08:12:16;3.08;;;2.88;;
11887;SDS011;6003;42.756;23.130;2022-09-09T08:14:43;3.13;;;2.92;;
11887;SDS011;6003;42.756;23.130;2022-09-09T08:17:11;2.70;;;2.50;;
11887;SDS011;6003;42.756;23.130;2022-09-09T08:19:38;2.67;;;2.47;;
11887;SDS011;6003;42.756;23.130;2022-09-09T08:22:05;2.88;;;2.67;;
11887;SDS011;6003;42.756;23.130;2022-09-09T08:24:34;3.20;;;2.72;;
11887;SDS011;6003;42.756;23.130;2022-09-09T08:27:01;2.70;;;2.58;;
11887;SDS011;6003;42.756;23.130;2022-09-09T08:29:28;2.95;;;2.75;;
11887;SDS011;6003;42.756;23.130;2022-09-09T08:31:56;2.75;;;2.55;;
11887;SDS011;6003;42.756;23.130;2022-09-09T08:34:25;2.60;;;2.45;;
11887;SDS011;6003;42.756;23.130;2022-09-09T08:36:53;2.33;;;2.23;;
11887;SDS011;6003;42.756;23.130;2022-09-09T08:39:21;2.77;;;2.57;;
11887;SDS011;6003;42.756;23.130;2022-09-09T08:41:57;2.93;;;2.77;;
11887;SDS011;6003;42.756;23.130;2022-09-09T08:44:42;3.03;;;2.83;;
11887;SDS011;6003;42.756;23.130;2022-09-09T08:47:21;3.00;;;2.70;;
11887;SDS011;6003;42.756;23.130;2022-09-09T08:49:58;2.90;;;2.70;;
11887;SDS011;6003;42.756;23.130;2022-09-09T08:52:36;2.60;;;2.50;;
11887;SDS011;6003;42.756;23.130;2022-09-09T08:55:11;3.40;;;3.10;;
11887;SDS011;6003;42.756;23.130;2022-09-09T08:57:49;2.65;;;2.50;;
11887;SDS011;6003;42.756;23.130;2022-09-09T09:00:19;2.70;;;2.55;;
11887;SDS011;6003;42.756;23.130;2022-09-09T09:02:48;2.72;;;2.53;;
11887;SDS011;6003;42.756;23.130;2022-09-09T09:05:28;2.45;;;2.33;;
11887;SDS011;6003;42.756;23.130;2022-09-09T09:08:03;2.70;;;2.50;;
11887;SDS011;6003;42.756;23.130;2022-09-09T09:10:45;3.03;;;2.80;;
11887;SDS011;6003;42.756;23.130;2022-09-09T09:13:17;3.38;;;3.08;;
11887;SDS011;6003;42.756;23.130;2022-09-09T09:15:48;2.90;;;2.65;;
11887;SDS011;6003;42.756;23.130;2022-09-09T09:18:20;2.70;;;2.50;;
11887;SDS011;6003;42.756;23.130;2022-09-09T09:20:50;3.00;;;2.80;;
11887;SDS011;6003;42.756;23.130;2022-09-09T09:23:25;3.10;;;2.80;;
11887;SDS011;6003;42.756;23.130;2022-09-09T09:26:00;2.95;;;2.75;;
11887;SDS011;6003;42.756;23.130;2022-09-09T09:28:30;2.47;;;2.28;;
11887;SDS011;6003;42.756;23.130;2022-09-09T09:30:59;2.83;;;2.63;;
11887;SDS011;6003;42.756;23.130;2022-09-09T09:33:31;2.83;;;2.63;;
11887;SDS011;6003;42.756;23.130;2022-09-09T09:36:02;2.72;;;2.53;;
11887;SDS011;6003;42.756;23.130;2022-09-09T09:38:31;2.47;;;2.38;;
11887;SDS011;6003;42.756;23.130;2022-09-09T09:40:59;2.47;;;2.28;;
11887;SDS011;6003;42.756;23.130;2022-09-09T09:43:26;2.80;;;2.60;;
11887;SDS011;6003;42.756;23.130;2022-09-09T09:45:56;2.90;;;2.70;;
11887;SDS011;6003;42.756;23.130;2022-09-09T09:48:24;2.90;;;2.70;;
11887;SDS011;6003;42.756;23.130;2022-09-09T09:50:52;2.90;;;2.70;;
11887;SDS011;6003;42.756;23.130;2022-09-09T09:53:23;2.85;;;2.65;;
11887;SDS011;6003;42.756;23.130;2022-09-09T09:55:54;2.80;;;2.60;;
11887;SDS011;6003;42.756;23.130;2022-09-09T09:58:24;3.03;;;2.83;;
11887;SDS011;6003;42.756;23.130;2022-09-09T10:00:53;2.50;;;2.40;;
11887;SDS011;6003;42.756;23.130;2022-09-09T10:03:23;2.83;;;2.50;;
11887;SDS011;6003;42.756;23.130;2022-09-09T10:05:52;2.65;;;2.55;;
11887;SDS011;6003;42.756;23.130;2022-09-09T10:08:19;2.65;;;2.45;;
11887;SDS011;6003;42.756;23.130;2022-09-09T10:10:59;3.00;;;2.80;;
11887;SDS011;6003;42.756;23.130;2022-09-09T10:13:38;3.40;;;3.10;;
11887;SDS011;6003;42.756;23.130;2022-09-09T10:16:18;3.22;;;3.03;;
11887;SDS011;6003;42.756;23.130;2022-09-09T10:18:59;3.13;;;2.92;;
11887;SDS011;6003;42.756;23.130;2022-09-09T10:21:38;2.80;;;2.60;;
11887;SDS011;6003;42.756;23.130;2022-09-09T10:24:43;3.40;;;3.20;;
11887;SDS011;6003;42.756;23.130;2022-09-09T10:27:23;2.92;;;2.70;;
11887;SDS011;6003;42.756;23.130;2022-09-09T10:30:00;3.83;;;3.08;;
11887;SDS011;6003;42.756;23.130;2022-09-09T10:32:38;3.20;;;3.00;;
11887;SDS011;6003;42.756;23.130;2022-09-09T10:35:17;3.15;;;2.95;;
11887;SDS011;6003;42.756;23.130;2022-09-09T10:53:32;2.75;;;2.63;;
11887;SDS011;6003;42.756;23.130;2022-09-09T10:56:05;2.80;;;2.60;;
11887;SDS011;6003;42.756;23.130;2022-09-09T10:58:36;3.10;;;2.90;;
11887;SDS011;6003;42.756;23.130;2022-09-09T11:01:10;2.83;;;2.72;;
11887;SDS011;6003;42.756;23.130;2022-09-09T11:03:45;3.00;;;2.80;;
11887;SDS011;6003;42.756;23.130;2022-09-09T11:06:21;2.92;;;2.72;;
11887;SDS011;6003;42.756;23.130;2022-09-09T11:08:56;3.03;;;2.83;;
11887;SDS011;6003;42.756;23.130;2022-09-09T11:11:27;3.00;;;2.80;;
11887;SDS011;6003;42.756;23.130;2022-09-09T11:14:03;3.47;;;3.17;;
11887;SDS011;6003;42.756;23.130;2022-09-09T11:16:39;3.03;;;2.83;;
11887;SDS011;6003;42.756;23.130;2022-09-09T11:19:11;2.97;;;2.77;;
11887;SDS011;6003;42.756;23.130;2022-09-09T11:21:45;3.20;;;2.97;;
11887;SDS011;6003;42.756;23.130;2022-09-09T11:24:16;2.63;;;2.53;;
11887;SDS011;6003;42.756;23.130;2022-09-09T11:26:49;2.97;;;2.78;;
11887;SDS011;6003;42.756;23.130;2022-09-09T11:32:39;3.40;;;3.07;;
11887;SDS011;6003;42.756;23.130;2022-09-09T11:35:26;3.23;;;3.03;;
11887;SDS011;6003;42.756;23.130;2022-09-09T11:38:09;3.50;;;3.20;;
11887;SDS011;6003;42.756;23.130;2022-09-09T11:40:46;3.37;;;3.07;;
11887;SDS011;6003;42.756;23.130;2022-09-09T11:43:22;3.40;;;3.20;;
11887;SDS011;6003;42.756;23.130;2022-09-09T11:45:54;3.65;;;3.33;;
11887;SDS011;6003;42.756;23.130;2022-09-09T11:48:26;4.72;;;3.53;;
11887;SDS011;6003;42.756;23.130;2022-09-09T11:50:57;3.77;;;3.50;;
11887;SDS011;6003;42.756;23.130;2022-09-09T11:53:26;3.77;;;3.47;;
11887;SDS011;6003;42.756;23.130;2022-09-09T11:56:04;3.73;;;3.13;;
11887;SDS011;6003;42.756;23.130;2022-09-09T11:58:44;3.10;;;2.90;;
11887;SDS011;6003;42.756;23.130;2022-09-09T12:01:28;3.67;;;3.38;;
11887;SDS011;6003;42.756;23.130;2022-09-09T12:06:56;4.82;;;4.43;;
11887;SDS011;6003;42.756;23.130;2022-09-09T12:09:27;5.35;;;3.35;;
11887;SDS011;6003;42.756;23.130;2022-09-09T12:12:07;3.30;;;3.10;;
11887;SDS011;6003;42.756;23.130;2022-09-09T12:14:55;3.22;;;2.92;;
11887;SDS011;6003;42.756;23.130;2022-09-09T12:17:46;2.88;;;2.67;;
11887;SDS011;6003;42.756;23.130;2022-09-09T12:20:15;3.08;;;2.88;;
11887;SDS011;6003;42.756;23.130;2022-09-09T12:22:47;3.38;;;3.08;;
11887;SDS011;6003;42.756;23.130;2022-09-09T12:25:34;3.20;;;2.88;;
11887;SDS011;6003;42.756;23.130;2022-09-09T12:28:14;2.72;;;2.53;;
11887;SDS011;6003;42.756;23.130;2022-09-09T12:30:48;2.95;;;2.75;;
11887;SDS011;6003;42.756;23.130;2022-09-09T12:33:21;3.10;;;2.90;;
11887;SDS011;6003;42.756;23.130;2022-09-09T12:35:51;3.28;;;3.08;;
11887;SDS011;6003;42.756;23.130;2022-09-09T12:38:23;2.67;;;2.53;;
11887;SDS011;6003;42.756;23.130;2022-09-09T12:40:58;2.92;;;2.72;;
11887;SDS011;6003;42.756;23.130;2022-09-09T12:43:27;2.38;;;2.20;;
11887;SDS011;6003;42.756;23.130;2022-09-09T12:45:55;3.28;;;3.08;;
11887;SDS011;6003;42.756;23.130;2022-09-09T12:48:27;2.88;;;2.67;;
11887;SDS011;6003;42.756;23.130;2022-09-09T12:50:58;2.53;;;2.40;;
11887;SDS011;6003;42.756;23.130;2022-09-09T12:53:28;2.78;;;2.67;;
11887;SDS011;6003;42.756;23.130;2022-09-09T12:55:59;5.75;;;2.70;;
11887;SDS011;6003;42.756;23.130;2022-09-09T12:58:30;3.55;;;2.55;;
11887;SDS011;6003;42.756;23.130;2022-09-09T13:01:00;3.10;;;2.90;;
11887;SDS011;6003;42.756;23.130;2022-09-09T13:03:30;2.90;;;2.70;;
11887;SDS011;6003;42.756;23.130;2022-09-09T13:05:59;2.58;;;2.47;;
11887;SDS011;6003;42.756;23.130;2022-09-09T13:08:39;2.65;;;2.45;;
11887;SDS011;6003;42.756;23.130;2022-09-09T13:11:07;2.85;;;2.65;;
11887;SDS011;6003;42.756;23.130;2022-09-09T13:13:42;3.00;;;2.80;;
11887;SDS011;6003;42.756;23.130;2022-09-09T13:16:20;2.63;;;2.42;;
11887;SDS011;6003;42.756;23.130;2022-09-09T13:18:49;2.53;;;2.42;;
11887;SDS011;6003;42.756;23.130;2022-09-09T13:21:17;2.58;;;2.42;;
11887;SDS011;6003;42.756;23.130;2022-09-09T13:23:48;2.67;;;2.50;;
11887;SDS011;6003;42.756;23.130;2022-09-09T13:26:20;2.75;;;2.50;;
11887;SDS011;6003;42.756;23.130;2022-09-09T13:28:50;2.92;;;2.70;;
11887;SDS011;6003;42.756;23.130;2022-09-09T13:31:21;2.50;;;2.30;;
11887;SDS011;6003;42.756;23.130;2022-09-09T13:33:52;2.90;;;2.70;;
11887;SDS011;6003;42.756;23.130;2022-09-09T13:36:27;3.15;;;2.72;;
11887;SDS011;6003;42.756;23.130;2022-09-09T13:38:56;3.00;;;2.80;;
11887;SDS011;6003;42.756;23.130;2022-09-09T13:41:27;2.25;;;2.13;;
11887;SDS011;6003;42.756;23.130;2022-09-09T13:43:58;2.93;;;2.73;;
11887;SDS011;6003;42.756;23.130;2022-09-09T13:46:29;2.30;;;2.20;;
11887;SDS011;6003;42.756;23.130;2022-09-09T13:49:01;2.63;;;2.43;;
11887;SDS011;6003;42.756;23.130;2022-09-09T13:51:32;2.78;;;2.58;;
11887;SDS011;6003;42.756;23.130;2022-09-09T13:54:02;2.45;;;2.30;;
11887;SDS011;6003;42.756;23.130;2022-09-09T13:56:31;2.65;;;2.45;;
11887;SDS011;6003;42.756;23.130;2022-09-09T13:59:00;2.30;;;2.20;;
11887;SDS011;6003;42.756;23.130;2022-09-09T14:01:27;3.35;;;3.15;;
11887;SDS011;6003;42.756;23.130;2022-09-09T14:03:55;2.20;;;2.10;;
11887;SDS011;6003;42.756;23.130;2022-09-09T14:06:22;3.05;;;2.00;;
11887;SDS011;6003;42.756;23.130;2022-09-09T14:08:49;2.38;;;2.03;;
11887;SDS011;6003;42.756;23.130;2022-09-09T14:11:17;2.85;;;2.65;;
11887;SDS011;6003;42.756;23.130;2022-09-09T14:13:44;2.15;;;1.98;;
11887;SDS011;6003;42.756;23.130;2022-09-09T14:16:13;2.10;;;2.00;;
11887;SDS011;6003;42.756;23.130;2022-09-09T14:18:40;2.85;;;2.15;;
11887;SDS011;6003;42.756;23.130;2022-09-09T14:21:07;2.30;;;2.20;;
11887;SDS011;6003;42.756;23.130;2022-09-09T14:23:34;2.07;;;1.97;;
11887;SDS011;6003;42.756;23.130;2022-09-09T14:26:03;2.27;;;2.07;;
11887;SDS011;6003;42.756;23.130;2022-09-09T14:28:31;2.83;;;2.15;;
11887;SDS011;6003;42.756;23.130;2022-09-09T14:31:00;2.57;;;2.37;;
11887;SDS011;6003;42.756;23.130;2022-09-09T14:33:29;2.33;;;1.93;;
11887;SDS011;6003;42.756;23.130;2022-09-09T14:35:57;2.30;;;2.20;;
11887;SDS011;6003;42.756;23.130;2022-09-09T14:38:24;2.40;;;2.20;;
11887;SDS011;6003;42.756;23.130;2022-09-09T14:40:52;2.30;;;2.20;;
11887;SDS011;6003;42.756;23.130;2022-09-09T14:43:19;2.50;;;2.30;;
11887;SDS011;6003;42.756;23.130;2022-09-09T14:45:46;2.47;;;2.30;;
11887;SDS011;6003;42.756;23.130;2022-09-09T14:48:15;2.50;;;2.40;;
11887;SDS011;6003;42.756;23.130;2022-09-09T14:50:43;2.63;;;2.43;;
11887;SDS011;6003;42.756;23.130;2022-09-09T14:53:10;2.33;;;2.23;;
11887;SDS011;6003;42.756;23.130;2022-09-09T14:55:37;2.67;;;2.13;;
11887;SDS011;6003;42.756;23.130;2022-09-09T14:58:04;2.47;;;2.37;;
11887;SDS011;6003;42.756;23.130;2022-09-09T15:00:32;2.53;;;2.33;;
11887;SDS011;6003;42.756;23.130;2022-09-09T15:02:59;2.30;;;2.20;;
11887;SDS011;6003;42.756;23.130;2022-09-09T15:05:26;4.03;;;2.73;;
11887;SDS011;6003;42.756;23.130;2022-09-09T15:07:54;2.83;;;2.63;;
11887;SDS011;6003;42.756;23.130;2022-09-09T15:10:21;2.70;;;2.50;;
11887;SDS011;6003;42.756;23.130;2022-09-09T15:12:48;2.80;;;2.60;;
11887;SDS011;6003;42.756;23.130;2022-09-09T15:15:15;2.60;;;2.40;;
11887;SDS011;6003;42.756;23.130;2022-09-09T15:17:43;3.20;;;2.33;;
11887;SDS011;6003;42.756;23.130;2022-09-09T15:20:10;3.33;;;3.00;;
11887;SDS011;6003;42.756;23.130;2022-09-09T15:22:37;2.77;;;2.57;;
11887;SDS011;6003;42.756;23.130;2022-09-09T15:25:07;2.83;;;2.60;;
11887;SDS011;6003;42.756;23.130;2022-09-09T15:27:34;2.37;;;2.17;;
11887;SDS011;6003;42.756;23.130;2022-09-09T15:30:01;2.37;;;2.27;;
11887;SDS011;6003;42.756;23.130;2022-09-09T15:32:28;2.50;;;2.30;;
11887;SDS011;6003;42.756;23.130;2022-09-09T15:34:55;3.00;;;2.37;;
11887;SDS011;6003;42.756;23.130;2022-09-09T15:37:22;2.67;;;2.47;;
11887;SDS011;6003;42.756;23.130;2022-09-09T15:39:49;2.70;;;2.50;;
11887;SDS011;6003;42.756;23.130;2022-09-09T15:42:18;2.37;;;2.17;;